Terminal Aerodrome Forecast
Issued by NWS Charleston, WV

Current Version | Previous Version | Text Only | Print | Product List | Glossary Off
Versions: 1 2 3 4 5 6 7 8 9 10 11 12 13 14 15 16 17 18 19 20

000
FTUS41 KRLX 271741
TAFBKW
TAF
KBKW 271741Z 2718/2818 23009KT 4SM SHRA BKN022 BKN035
     FM272200 24009KT P6SM VCTS BKN030CB
     FM272300 25009KT P6SM VCTS BKN020CB
     FM280000 26009KT P6SM BKN020
     FM280200 27009KT P6SM SCT015
     FM280700 26010KT P6SM BKN012
     FM281300 27012G17KT P6SM SCT016=

USA.gov is the U.S. government's official web portal to all federal, state and local government web resources and services.